Countryside Village, MT

10:54 AM MDT on March 30, 2017 (GMT -0600)
Countryside Village | | Change Station

Elev 3514 ft 47.54 °N, 111.29 °W | Updated 0 second ago

Partly Cloudy
Partly Cloudy
56.8 °F
Feels Like 56.8 °F
N
3.3
Wind Variable Wind from West
Gusts 6.9 mph

Today
High -- | Low -- °F
--% Chance of Precip.
Yesterday
High -- | Low -- °F
Precip. -- in
Pressure 29.73 in
Visibility 10.0 miles
Clouds Clear
Dew Point 37 °F
Humidity 48%
Rainfall 0.00 in
Snow Depth Not available.
7:07 AM 7:52 PM
Waxing Crescent, 9% visible
METAR KGTF 301553Z 26007KT 10SM CLR 09/01 A2972 RMK AO2 SLP067 T00940011
Pressure 29.73 in
Visibility 10.0 miles
Clouds Clear
Dew Point 37 °F
Humidity 48%
Rainfall 0.00 in
Snow Depth Not available.
7:07 AM 7:52 PM
Waxing Crescent, 9% visible
METAR KGTF 301553Z 26007KT 10SM CLR 09/01 A2972 RMK AO2 SLP067 T00940011

Get Severe Weather Alerts

Thanks for signing up!

Be on the lookout for a verification email in your inbox.

You'll start receiving the daily forecast at 8 AM.

×

10-Day Weather Forecast

Almanac

Astronomy

Mar. 30, 2017 Rise Set
Actual Time
Civil Twilight
Nautical Twilight
Astronomical Twilight
Moon
Length of Visible Light
Length of Day
Tomorrow will be .
, % of the Moon is Illuminated

Today's Extremes

State Highs State Lows

Community

WunderPhotos

Upload Photos

1,962,540 photos uploaded!

WunderBlog® & News

Nearby

Air Quality

  Air Quality AQ Index Pollutant
Not available.

Snow Depth

Station Depth Elevation

Earthquake Activity

City Distance Mag. Time & Date
Minimum magnitude displayed is 2.5.

Earthquake Activity

City Distance Mag. Time & Date
Minimum magnitude displayed is 2.5.

Coastal Water Temperatures

Place Temperature

Stations

Nearby Weather Stations

Station Location Temp. Windchill Dew Point Humidity Wind Precip. Elev Updated Type
                   

Watches & Warnings

There are currently no watches in effect.